Time;durP1;ratioP1;P1;durP2;ratioP2;P2;SDS_P1;SDS_P2;PMS_P1;PMS_P2;Temp;Humidity;BMP_temperature;BMP_pressure;BME280_temperature;BME280_humidity;BME280_pressure;Samples;Min_cycle;Max_cycle;Signal;HPM_P1;HPM_P2
2022/11/25 00:01:51;;;;;;;7.20;4.63;;;6.50;99.90;;;;;;953667;149;27323;-80
2022/11/25 00:04:18;;;;;;;9.10;4.90;;;6.50;99.90;;;;;;949219;149;27402;-81
2022/11/25 00:06:45;;;;;;;7.73;4.43;;;6.50;99.90;;;;;;951239;149;27349;-81
2022/11/25 00:09:12;;;;;;;9.57;5.10;;;6.50;99.90;;;;;;950921;149;28835;-81
2022/11/25 00:11:38;;;;;;;9.53;4.90;;;6.50;99.90;;;;;;950022;149;27294;-81
2022/11/25 00:14:04;;;;;;;10.27;5.27;;;6.50;99.90;;;;;;950795;149;27356;-81
2022/11/25 00:16:31;;;;;;;10.20;5.23;;;6.50;99.90;;;;;;950342;149;27361;-81
2022/11/25 00:18:58;;;;;;;9.83;4.80;;;6.50;99.90;;;;;;950792;149;27349;-81
2022/11/25 00:21:24;;;;;;;8.03;4.43;;;6.40;99.90;;;;;;949099;149;27749;-81
2022/11/25 00:23:53;;;;;;;8.60;5.10;;;6.40;99.90;;;;;;952441;149;27281;-81
2022/11/25 00:26:20;;;;;;;7.13;4.80;;;6.40;99.90;;;;;;950681;149;27356;-81
2022/11/25 00:28:47;;;;;;;9.37;4.83;;;6.40;99.90;;;;;;951594;149;27375;-81
2022/11/25 00:31:16;;;;;;;5.87;4.50;;;6.40;99.90;;;;;;951379;149;27364;-81
2022/11/25 00:33:42;;;;;;;7.70;4.93;;;6.40;99.90;;;;;;950167;149;27311;-79
2022/11/25 00:36:24;;;;;;;6.33;5.00;;;6.40;99.90;;;;;;950615;149;27337;-79
2022/11/25 00:38:53;;;;;;;6.50;4.40;;;6.40;99.90;;;;;;947010;149;27632;-79
2022/11/25 00:46:49;;;;;;;7.10;4.70;;;6.30;99.90;;;;;;959275;146;27328;-79
2022/11/25 00:49:16;;;;;;;5.60;4.50;;;6.30;99.90;;;;;;937493;148;27336;-79
2022/11/25 00:51:42;;;;;;;10.33;5.73;;;6.30;99.90;;;;;;956860;145;27308;-79
2022/11/25 00:54:09;;;;;;;11.43;5.60;;;6.30;99.90;;;;;;957067;145;27359;-79
2022/11/25 00:56:36;;;;;;;8.40;5.10;;;6.20;99.90;;;;;;942276;147;27314;-79
2022/11/25 00:59:02;;;;;;;7.93;4.70;;;6.20;99.90;;;;;;941487;148;27905;-79
2022/11/25 01:01:29;;;;;;;9.10;4.83;;;6.20;99.90;;;;;;940702;148;27477;-79
2022/11/25 01:03:55;;;;;;;8.50;5.03;;;6.20;99.90;;;;;;939656;148;27307;-79
2022/11/25 01:06:22;;;;;;;7.90;4.80;;;6.20;99.90;;;;;;954905;148;27356;-79
2022/11/25 01:08:48;;;;;;;8.37;4.47;;;6.20;99.90;;;;;;951181;149;27456;-79
2022/11/25 01:11:15;;;;;;;6.30;4.30;;;6.20;99.90;;;;;;939364;148;27382;-79
2022/11/25 01:13:42;;;;;;;8.03;4.83;;;6.20;99.90;;;;;;938299;148;27405;-79
2022/11/25 01:16:08;;;;;;;6.63;5.07;;;6.20;99.90;;;;;;948608;148;27320;-79
2022/11/25 01:18:35;;;;;;;7.77;4.07;;;6.20;99.90;;;;;;940474;148;27382;-79
2022/11/25 01:21:07;;;;;;;10.60;4.50;;;6.20;99.90;;;;;;941542;148;27389;-79
2022/11/25 01:23:33;;;;;;;8.13;4.07;;;6.20;99.90;;;;;;939364;148;27326;-80
2022/11/25 01:26:05;;;;;;;9.23;4.37;;;6.20;99.90;;;;;;954291;148;27906;-79
2022/11/25 01:28:32;;;;;;;10.00;4.67;;;6.20;99.90;;;;;;956446;145;27379;-79
2022/11/25 01:31:01;;;;;;;12.23;4.50;;;6.20;99.90;;;;;;955190;145;28354;-79
2022/11/25 01:33:28;;;;;;;6.90;4.10;;;6.20;99.90;;;;;;939172;148;27437;-79
2022/11/25 01:35:55;;;;;;;5.17;4.07;;;6.20;99.90;;;;;;940114;148;27410;-79
2022/11/25 01:38:21;;;;;;;7.53;4.20;;;6.20;99.90;;;;;;939737;148;27331;-79
2022/11/25 01:40:48;;;;;;;5.33;4.20;;;6.20;99.90;;;;;;941827;148;27450;-79
2022/11/25 01:43:14;;;;;;;7.10;4.20;;;6.20;99.90;;;;;;943938;148;27357;-79
2022/11/25 01:45:41;;;;;;;9.30;4.50;;;6.20;99.90;;;;;;934841;149;27360;-79
2022/11/25 01:48:10;;;;;;;7.53;4.47;;;6.20;99.90;;;;;;956211;145;27376;-78
2022/11/25 01:50:37;;;;;;;6.67;3.80;;;6.20;99.90;;;;;;957345;145;27444;-79
2022/11/25 01:53:03;;;;;;;7.57;3.93;;;6.20;99.90;;;;;;955309;146;27517;-79
2022/11/25 01:55:30;;;;;;;9.10;4.00;;;6.20;99.90;;;;;;957129;145;27302;-79
2022/11/25 01:58:02;;;;;;;5.37;3.53;;;6.20;99.90;;;;;;956983;146;27840;-79
2022/11/25 02:00:29;;;;;;;5.40;3.30;;;6.20;99.90;;;;;;939130;148;27480;-79
2022/11/25 02:02:56;;;;;;;5.57;3.57;;;6.20;99.90;;;;;;941184;148;27953;-79
2022/11/25 02:05:22;;;;;;;4.73;3.03;;;6.20;99.90;;;;;;953917;145;27456;-79
2022/11/25 02:07:49;;;;;;;6.63;3.70;;;6.20;99.90;;;;;;939606;148;27318;-79
2022/11/25 02:10:15;;;;;;;4.43;3.10;;;6.20;99.90;;;;;;956085;145;27396;-79
2022/11/25 02:12:42;;;;;;;6.57;3.37;;;6.10;99.90;;;;;;940910;148;27261;-79
2022/11/25 02:15:08;;;;;;;7.20;3.93;;;6.10;99.90;;;;;;942676;148;27451;-78
2022/11/25 02:17:35;;;;;;;6.67;3.50;;;6.20;99.90;;;;;;943508;148;27374;-79
2022/11/25 02:20:02;;;;;;;4.60;3.30;;;6.20;99.90;;;;;;944429;148;28311;-79
2022/11/25 02:22:34;;;;;;;9.57;3.50;;;6.20;99.90;;;;;;942126;148;27430;-79
2022/11/25 02:25:01;;;;;;;6.47;3.10;;;6.20;99.90;;;;;;938480;148;27295;-79
2022/11/25 02:27:27;;;;;;;5.43;3.47;;;6.30;99.90;;;;;;954515;146;27767;-79
2022/11/25 02:29:54;;;;;;;5.47;3.80;;;6.30;99.90;;;;;;939275;148;27449;-79
2022/11/25 02:32:20;;;;;;;7.57;3.20;;;6.30;99.90;;;;;;943739;148;27334;-79
2022/11/25 02:34:47;;;;;;;4.93;3.53;;;6.30;99.90;;;;;;940014;148;27344;-79
2022/11/25 02:37:13;;;;;;;7.43;3.80;;;6.40;99.90;;;;;;940063;148;27336;-79
2022/11/25 02:39:40;;;;;;;6.97;3.77;;;6.40;99.90;;;;;;939059;148;27389;-79
2022/11/25 02:42:07;;;;;;;7.47;3.43;;;6.40;99.90;;;;;;939574;148;27372;-79
2022/11/25 02:44:33;;;;;;;5.67;3.47;;;6.40;99.90;;;;;;955985;145;27338;-79
2022/11/25 02:47:00;;;;;;;6.23;3.13;;;6.40;99.90;;;;;;955589;145;27694;-79
2022/11/25 02:49:26;;;;;;;6.07;4.07;;;6.40;99.90;;;;;;957281;145;27418;-79
2022/11/25 02:51:53;;;;;;;5.47;3.40;;;6.40;99.90;;;;;;956120;145;27389;-79
2022/11/25 02:54:19;;;;;;;5.50;3.10;;;6.40;99.90;;;;;;954842;145;27348;-79
2022/11/25 02:56:46;;;;;;;4.80;3.23;;;6.40;99.90;;;;;;957433;145;27346;-79
2022/11/25 02:59:13;;;;;;;6.67;3.40;;;6.40;99.90;;;;;;941115;148;27826;-79
2022/11/25 03:01:39;;;;;;;7.20;3.80;;;6.50;99.90;;;;;;955591;145;27340;-79
2022/11/25 03:04:06;;;;;;;7.37;3.87;;;6.50;99.90;;;;;;955611;145;27338;-79
2022/11/25 03:06:32;;;;;;;7.43;3.90;;;6.50;99.90;;;;;;957786;145;27345;-79
2022/11/25 03:08:59;;;;;;;4.30;3.53;;;6.60;99.90;;;;;;937218;151;27503;-79
2022/11/25 03:12:17;;;;;;;4.67;3.27;;;6.60;99.90;;;;;;941539;148;27338;-79
2022/11/25 03:13:52;;;;;;;4.03;3.43;;;6.60;99.90;;;;;;935808;149;27340;-79
2022/11/25 03:16:19;;;;;;;5.33;3.40;;;6.70;99.90;;;;;;956286;145;27337;-79
2022/11/25 03:18:45;;;;;;;5.63;3.20;;;6.70;99.90;;;;;;955515;145;27332;-79
2022/11/25 03:21:12;;;;;;;4.60;3.33;;;6.70;99.90;;;;;;941306;148;27444;-79
2022/11/25 03:23:38;;;;;;;4.00;2.93;;;6.80;99.90;;;;;;934232;149;27418;-79
2022/11/25 03:26:05;;;;;;;5.70;3.27;;;6.80;99.90;;;;;;955078;148;27336;-79
2022/11/25 03:28:32;;;;;;;7.37;3.47;;;6.80;99.90;;;;;;955702;148;28803;-79
2022/11/25 03:30:58;;;;;;;4.90;3.03;;;6.90;99.90;;;;;;934922;151;27340;-79
2022/11/25 03:33:25;;;;;;;4.93;3.20;;;6.90;99.90;;;;;;954897;145;27461;-79
2022/11/25 03:35:51;;;;;;;5.10;3.20;;;6.90;99.90;;;;;;943020;148;27485;-78
2022/11/25 03:38:18;;;;;;;6.33;3.10;;;6.90;99.90;;;;;;956895;145;27298;-78
2022/11/25 03:40:46;;;;;;;5.60;3.30;;;6.90;99.90;;;;;;940370;148;27433;-78
2022/11/25 03:43:11;;;;;;;6.90;3.27;;;6.90;99.90;;;;;;938724;148;27413;-79
2022/11/25 03:45:38;;;;;;;8.50;3.60;;;6.90;99.90;;;;;;943516;148;27441;-78
2022/11/25 03:48:04;;;;;;;5.10;3.50;;;6.90;99.90;;;;;;951102;149;27376;-78
2022/11/25 03:50:31;;;;;;;4.50;3.30;;;6.90;99.90;;;;;;946856;149;27644;-78
2022/11/25 03:52:58;;;;;;;3.93;3.10;;;6.90;99.90;;;;;;946362;149;27819;-78
2022/11/25 03:55:24;;;;;;;3.70;3.10;;;6.90;99.90;;;;;;944986;149;27382;-78
2022/11/25 03:57:51;;;;;;;4.87;2.70;;;6.90;99.90;;;;;;948606;149;27306;-78
2022/11/25 04:00:17;;;;;;;5.57;3.10;;;6.90;99.90;;;;;;947134;149;27338;-78
2022/11/25 04:02:44;;;;;;;4.40;2.87;;;6.90;99.90;;;;;;947462;149;27362;-78
2022/11/25 04:05:10;;;;;;;6.17;3.50;;;6.90;99.90;;;;;;947900;149;27335;-78
2022/11/25 04:07:37;;;;;;;6.63;3.30;;;6.90;99.90;;;;;;947645;149;27307;-78
2022/11/25 04:10:04;;;;;;;7.37;3.00;;;6.90;99.90;;;;;;948192;149;27417;-78
2022/11/25 04:12:48;;;;;;;7.73;3.00;;;6.90;99.90;;;;;;947317;149;27332;-79
2022/11/25 04:15:15;;;;;;;4.40;3.03;;;7.00;99.90;;;;;;945517;149;27382;-78
2022/11/25 04:17:41;;;;;;;6.07;3.27;;;7.00;99.90;;;;;;947475;149;27314;-78
2022/11/25 04:20:08;;;;;;;5.60;2.90;;;7.00;99.90;;;;;;946201;149;27313;-78
2022/11/25 04:22:35;;;;;;;8.10;3.60;;;7.00;99.90;;;;;;946699;148;27401;-79
2022/11/25 04:25:01;;;;;;;5.27;3.33;;;7.10;99.90;;;;;;948198;149;27446;-78
2022/11/25 04:27:28;;;;;;;6.43;3.67;;;7.10;99.90;;;;;;946699;149;27385;-78
2022/11/25 04:29:54;;;;;;;4.13;2.73;;;7.10;99.90;;;;;;947486;149;27710;-78
2022/11/25 04:32:21;;;;;;;4.30;2.97;;;7.20;99.90;;;;;;946878;149;27363;-78
2022/11/25 04:34:47;;;;;;;6.23;3.10;;;7.20;99.90;;;;;;946792;149;27803;-78
2022/11/25 04:37:14;;;;;;;6.77;3.07;;;7.30;99.90;;;;;;946122;149;27306;-78
2022/11/25 04:39:41;;;;;;;3.33;2.83;;;7.30;99.90;;;;;;947454;149;27404;-78
2022/11/25 04:44:52;;;;;;;5.03;2.83;;;7.40;99.90;;;;;;946377;149;27431;-78
2022/11/25 04:47:18;;;;;;;3.83;3.10;;;7.40;99.90;;;;;;948569;149;27307;-78
2022/11/25 04:49:45;;;;;;;4.90;3.23;;;7.40;99.90;;;;;;948128;149;27381;-78
2022/11/25 04:52:11;;;;;;;4.43;3.00;;;7.40;99.90;;;;;;952911;149;27339;-78
2022/11/25 04:54:38;;;;;;;6.20;2.97;;;7.50;99.90;;;;;;951885;149;27452;-78
2022/11/25 04:57:05;;;;;;;8.97;3.37;;;7.50;99.90;;;;;;951146;149;27288;-78
2022/11/25 04:59:40;;;;;;;3.00;2.70;;;7.50;99.90;;;;;;951205;149;27325;-78
2022/11/25 05:02:15;;;;;;;3.83;3.13;;;7.50;99.90;;;;;;952620;149;27461;-78
2022/11/25 05:04:42;;;;;;;5.07;3.10;;;7.60;99.90;;;;;;950865;148;27351;-77
2022/11/25 05:07:08;;;;;;;6.13;3.70;;;7.60;99.90;;;;;;950789;149;27371;-77
2022/11/25 05:09:35;;;;;;;7.13;3.30;;;7.70;99.90;;;;;;951513;148;27452;-78
2022/11/25 05:12:01;;;;;;;4.47;3.03;;;7.70;99.90;;;;;;951565;149;27443;-78
2022/11/25 05:14:28;;;;;;;7.50;3.00;;;7.70;99.90;;;;;;950175;148;27465;-78
2022/11/25 05:16:55;;;;;;;4.33;3.07;;;7.70;99.90;;;;;;950960;149;27380;-78
2022/11/25 05:19:21;;;;;;;6.77;3.57;;;7.70;99.90;;;;;;951622;148;27244;-78
2022/11/25 05:21:48;;;;;;;8.27;3.80;;;7.80;99.90;;;;;;951872;149;27362;-78
2022/11/25 05:24:14;;;;;;;6.00;3.70;;;7.80;99.90;;;;;;952439;148;27940;-78
2022/11/25 05:26:41;;;;;;;6.33;3.27;;;7.80;99.90;;;;;;951458;149;27312;-78
2022/11/25 05:29:07;;;;;;;4.80;3.03;;;7.80;99.90;;;;;;951500;148;27458;-78
2022/11/25 05:31:34;;;;;;;6.13;3.47;;;7.80;99.90;;;;;;951213;149;27332;-78
2022/11/25 05:34:01;;;;;;;5.13;3.07;;;7.80;99.90;;;;;;951257;148;27413;-78
2022/11/25 05:36:27;;;;;;;8.07;3.30;;;7.80;99.90;;;;;;951458;148;27308;-78
2022/11/25 05:38:54;;;;;;;5.47;3.43;;;7.80;99.90;;;;;;950704;149;27337;-78
2022/11/25 05:41:20;;;;;;;6.73;3.10;;;7.80;99.90;;;;;;953380;148;27450;-78
2022/11/25 05:43:47;;;;;;;5.97;2.97;;;7.80;99.90;;;;;;951566;149;27353;-78
2022/11/25 05:46:14;;;;;;;4.27;3.03;;;7.80;99.90;;;;;;950406;148;27327;-78
2022/11/25 05:48:40;;;;;;;6.07;3.53;;;7.90;99.90;;;;;;952026;149;27292;-78
2022/11/25 05:51:08;;;;;;;8.43;3.60;;;7.90;99.90;;;;;;948091;149;27903;-78
2022/11/25 05:53:33;;;;;;;4.97;3.10;;;7.80;99.90;;;;;;946597;149;27365;-78
2022/11/25 05:56:00;;;;;;;4.60;2.90;;;7.90;99.90;;;;;;947210;149;27350;-78
2022/11/25 05:58:27;;;;;;;6.23;3.17;;;7.90;99.90;;;;;;947063;149;27376;-78
2022/11/25 06:00:53;;;;;;;6.80;3.13;;;7.90;99.90;;;;;;947580;149;27358;-78
2022/11/25 06:03:20;;;;;;;6.97;3.60;;;7.90;99.90;;;;;;947310;149;28078;-78
2022/11/25 06:05:46;;;;;;;4.20;3.07;;;7.90;99.90;;;;;;946259;149;27375;-78
2022/11/25 06:08:13;;;;;;;5.60;2.70;;;7.90;99.90;;;;;;946579;149;27391;-78
2022/11/25 06:10:39;;;;;;;5.33;3.50;;;7.90;99.90;;;;;;946828;149;27413;-78
2022/11/25 06:13:06;;;;;;;5.77;3.07;;;7.90;99.90;;;;;;947173;149;27288;-78
2022/11/25 06:15:33;;;;;;;4.90;3.10;;;8.00;99.90;;;;;;948733;149;28008;-78
2022/11/25 06:17:59;;;;;;;5.67;3.40;;;8.00;99.90;;;;;;946603;149;27318;-78
2022/11/25 06:20:26;;;;;;;4.60;3.00;;;8.00;99.90;;;;;;947387;149;27362;-77
2022/11/25 06:22:53;;;;;;;6.90;3.20;;;8.00;99.90;;;;;;947131;149;27373;-77
2022/11/25 06:25:19;;;;;;;5.87;2.93;;;8.10;99.90;;;;;;948060;149;27287;-78
2022/11/25 06:27:46;;;;;;;3.87;2.80;;;8.10;99.90;;;;;;946212;149;27357;-78
2022/11/25 06:30:13;;;;;;;5.87;2.80;;;8.20;99.90;;;;;;945281;149;27348;-78
2022/11/25 06:32:39;;;;;;;5.07;3.20;;;8.20;99.90;;;;;;947935;148;27360;-77
2022/11/25 06:35:05;;;;;;;4.97;2.90;;;8.20;99.90;;;;;;945782;149;27448;-77
2022/11/25 06:37:32;;;;;;;4.83;3.33;;;8.30;99.90;;;;;;946135;149;27329;-78
2022/11/25 06:39:58;;;;;;;6.10;3.33;;;8.30;99.90;;;;;;948561;149;27461;-78
2022/11/25 06:42:25;;;;;;;6.20;3.53;;;8.30;99.90;;;;;;948080;149;27836;-79
2022/11/25 06:44:52;;;;;;;11.60;3.30;;;8.40;99.90;;;;;;945033;149;27344;-78
2022/11/25 06:47:18;;;;;;;7.03;3.63;;;8.40;99.90;;;;;;946397;149;27894;-78
2022/11/25 06:49:45;;;;;;;4.13;2.80;;;8.40;99.90;;;;;;945194;149;27332;-78
2022/11/25 06:52:11;;;;;;;4.07;2.90;;;8.50;99.90;;;;;;942159;149;27337;-78
2022/11/25 06:54:41;;;;;;;4.73;3.10;;;8.50;99.90;;;;;;940710;150;27336;-78
2022/11/25 06:57:07;;;;;;;4.83;3.13;;;8.50;99.90;;;;;;941472;150;27397;-78
2022/11/25 06:59:34;;;;;;;9.27;3.17;;;8.50;99.90;;;;;;941443;150;27418;-78
2022/11/25 07:02:00;;;;;;;5.90;2.70;;;8.60;99.90;;;;;;940816;150;27378;-78
2022/11/25 07:04:27;;;;;;;5.00;2.70;;;8.60;99.90;;;;;;941654;150;27412;-79
2022/11/25 07:06:53;;;;;;;6.83;3.33;;;8.60;99.90;;;;;;940470;150;27315;-78
2022/11/25 07:09:21;;;;;;;5.27;2.83;;;8.70;99.90;;;;;;939712;150;27418;-78
2022/11/25 07:11:47;;;;;;;4.50;3.10;;;8.70;99.90;;;;;;940678;150;27468;-78
2022/11/25 07:14:13;;;;;;;6.83;3.07;;;8.70;99.90;;;;;;939556;150;27343;-78
2022/11/25 07:16:40;;;;;;;4.83;3.63;;;8.70;99.90;;;;;;941421;150;27310;-78
2022/11/25 07:19:06;;;;;;;6.37;3.20;;;8.80;99.90;;;;;;939347;150;27358;-77
2022/11/25 07:21:33;;;;;;;5.63;2.83;;;8.80;99.90;;;;;;941273;150;27395;-78
2022/11/25 07:24:00;;;;;;;7.83;3.13;;;8.80;99.90;;;;;;941447;150;27485;-78
2022/11/25 07:26:26;;;;;;;9.53;3.73;;;8.90;99.90;;;;;;941368;150;27872;-78
2022/11/25 07:28:53;;;;;;;4.50;2.90;;;8.90;99.90;;;;;;938962;150;27346;-78
2022/11/25 07:31:20;;;;;;;5.43;3.10;;;8.90;99.90;;;;;;941978;148;27329;-78
2022/11/25 07:33:46;;;;;;;4.83;2.53;;;9.00;99.90;;;;;;935242;148;27423;-78
2022/11/25 07:36:12;;;;;;;6.33;3.20;;;9.00;99.90;;;;;;938918;148;27344;-78
2022/11/25 07:38:39;;;;;;;5.63;3.30;;;9.00;99.90;;;;;;939776;150;28065;-78
2022/11/25 07:41:15;;;;;;;4.17;2.80;;;9.10;99.90;;;;;;940575;150;27330;-78
2022/11/25 07:43:45;;;;;;;4.57;3.00;;;9.10;99.90;;;;;;940209;150;27272;-78
2022/11/25 07:46:20;;;;;;;6.23;3.07;;;9.20;99.90;;;;;;941075;150;27409;-78
2022/11/25 07:48:46;;;;;;;5.63;3.33;;;9.20;99.90;;;;;;940298;149;27386;-78
2022/11/25 07:51:22;;;;;;;4.50;3.10;;;9.30;99.90;;;;;;946850;148;27382;-78
2022/11/25 07:53:49;;;;;;;4.97;3.43;;;9.30;99.90;;;;;;955419;148;27338;-78
2022/11/25 07:56:15;;;;;;;6.70;3.53;;;9.30;99.90;;;;;;955411;148;27389;-78
2022/11/25 07:58:42;;;;;;;5.13;3.33;;;9.30;99.90;;;;;;956800;145;27250;-78
2022/11/25 08:01:08;;;;;;;8.23;3.47;;;9.40;99.90;;;;;;949574;148;28015;-78
2022/11/25 08:03:35;;;;;;;9.63;3.63;;;9.40;99.90;;;;;;949353;149;27369;-78
2022/11/25 08:06:04;;;;;;;4.80;3.60;;;9.40;99.90;;;;;;954901;148;27360;-78
2022/11/25 08:08:31;;;;;;;9.00;3.50;;;9.50;99.90;;;;;;954109;145;27416;-78
2022/11/25 08:10:57;;;;;;;3.67;3.10;;;9.60;99.90;;;;;;955696;145;27319;-78
2022/11/25 08:13:24;;;;;;;5.23;3.43;;;9.60;99.90;;;;;;956852;145;27305;-78
2022/11/25 08:15:51;;;;;;;8.20;3.90;;;9.70;99.90;;;;;;955223;145;27457;-78
2022/11/25 08:18:17;;;;;;;7.10;3.47;;;9.90;99.90;;;;;;941169;148;27369;-78
2022/11/25 08:20:44;;;;;;;5.03;2.97;;;10.00;99.90;;;;;;944011;148;27422;-78
2022/11/25 08:23:10;;;;;;;5.33;3.40;;;10.10;99.90;;;;;;956802;148;27799;-78
2022/11/25 08:25:40;;;;;;;4.50;2.93;;;10.10;99.90;;;;;;956334;145;27458;-78
2022/11/25 08:28:06;;;;;;;6.97;2.87;;;10.20;99.90;;;;;;947616;147;27502;-78
2022/11/25 08:30:33;;;;;;;5.17;3.13;;;10.30;99.90;;;;;;952800;148;27387;-78
2022/11/25 08:33:00;;;;;;;5.23;3.13;;;10.30;99.90;;;;;;953128;148;27362;-78
2022/11/25 08:35:26;;;;;;;5.77;3.40;;;10.30;99.90;;;;;;955160;148;27344;-78
2022/11/25 08:37:53;;;;;;;5.23;3.53;;;10.40;99.90;;;;;;955202;148;27328;-78
2022/11/25 08:40:19;;;;;;;5.90;2.87;;;10.40;99.90;;;;;;957462;148;27862;-78
2022/11/25 08:42:46;;;;;;;3.70;3.13;;;10.40;99.90;;;;;;955163;148;27468;-78
2022/11/25 08:45:12;;;;;;;4.47;3.40;;;10.40;99.90;;;;;;954787;148;27362;-78
2022/11/25 08:47:39;;;;;;;4.50;3.30;;;10.40;99.90;;;;;;953926;148;27301;-78
2022/11/25 08:50:06;;;;;;;6.80;2.97;;;10.50;99.90;;;;;;955932;148;27315;-78
2022/11/25 08:52:32;;;;;;;3.67;3.33;;;10.50;99.90;;;;;;948107;148;27511;-78
2022/11/25 08:54:59;;;;;;;6.30;3.10;;;10.50;99.90;;;;;;941674;150;27358;-78
2022/11/25 08:57:25;;;;;;;4.13;3.07;;;10.50;99.90;;;;;;939254;150;27427;-78
2022/11/25 08:59:52;;;;;;;3.83;2.90;;;10.50;99.90;;;;;;940252;150;27412;-78
2022/11/25 09:02:19;;;;;;;5.00;3.17;;;10.50;99.80;;;;;;941050;149;27442;-78
2022/11/25 09:04:45;;;;;;;4.87;3.50;;;10.50;99.80;;;;;;941018;150;27301;-78
2022/11/25 09:07:12;;;;;;;7.97;3.20;;;10.50;99.90;;;;;;940785;150;27474;-78
2022/11/25 09:09:38;;;;;;;6.47;4.20;;;10.60;99.90;;;;;;940430;150;27420;-78
2022/11/25 09:12:05;;;;;;;5.40;3.67;;;10.60;99.90;;;;;;940764;148;27399;-78
2022/11/25 09:14:32;;;;;;;5.00;3.50;;;10.60;99.90;;;;;;941425;150;27386;-78
2022/11/25 09:17:00;;;;;;;5.63;3.67;;;10.70;99.90;;;;;;940452;150;27433;-78
2022/11/25 09:19:25;;;;;;;8.07;3.70;;;10.70;99.90;;;;;;941408;150;27800;-78
2022/11/25 09:21:51;;;;;;;3.87;3.20;;;10.70;99.90;;;;;;941764;149;27324;-78
2022/11/25 09:24:18;;;;;;;5.13;3.00;;;10.80;99.90;;;;;;940212;150;27441;-78
2022/11/25 09:26:44;;;;;;;4.07;2.80;;;10.80;99.90;;;;;;941948;150;27371;-78
2022/11/25 09:29:11;;;;;;;3.57;3.10;;;10.90;99.90;;;;;;939222;150;27347;-78
2022/11/25 09:31:38;;;;;;;4.47;2.90;;;11.00;99.90;;;;;;940310;150;27377;-78
2022/11/25 09:34:04;;;;;;;6.53;3.33;;;11.00;99.70;;;;;;941051;149;27338;-78
2022/11/25 09:36:31;;;;;;;6.00;3.00;;;11.10;99.60;;;;;;939022;150;27361;-78
2022/11/25 09:38:57;;;;;;;4.70;3.10;;;11.10;99.60;;;;;;940198;150;27338;-78
2022/11/25 09:48:00;;;;;;;6.37;2.90;;;11.20;99.30;;;;;;941327;150;27445;-78
2022/11/25 09:50:29;;;;;;;5.00;2.47;;;11.20;99.20;;;;;;939955;150;27453;-78
2022/11/25 09:52:58;;;;;;;2.53;2.33;;;11.20;99.20;;;;;;916200;150;27350;-78
2022/11/25 09:55:25;;;;;;;5.00;2.70;;;11.20;99.30;;;;;;939739;150;27430;-78
2022/11/25 09:58:06;;;;;;;4.13;3.17;;;11.30;99.40;;;;;;939639;148;27451;-78
2022/11/25 10:00:42;;;;;;;5.03;3.00;;;11.30;99.70;;;;;;941436;150;27334;-78
2022/11/25 10:03:11;;;;;;;4.00;3.20;;;11.40;99.90;;;;;;940621;150;27391;-78
2022/11/25 10:05:37;;;;;;;5.40;2.60;;;11.50;99.90;;;;;;939623;150;27894;-78
2022/11/25 10:08:10;;;;;;;3.33;2.30;;;11.50;99.90;;;;;;940620;150;27514;-78
2022/11/25 10:10:46;;;;;;;5.97;2.80;;;11.60;99.90;;;;;;937971;149;27414;-78
2022/11/25 10:13:12;;;;;;;4.33;2.87;;;11.70;99.90;;;;;;941116;150;27365;-78
2022/11/25 10:15:41;;;;;;;4.17;2.40;;;11.70;99.60;;;;;;939537;150;27396;-78
2022/11/25 10:18:08;;;;;;;3.73;2.60;;;11.80;99.40;;;;;;942213;150;27467;-78
2022/11/25 10:20:34;;;;;;;2.80;2.40;;;11.90;99.30;;;;;;940872;150;27398;-78
2022/11/25 10:23:04;;;;;;;2.83;2.40;;;11.90;99.20;;;;;;939532;150;27366;-78
2022/11/25 10:25:30;;;;;;;5.67;2.73;;;12.00;99.30;;;;;;940917;150;27322;-78
2022/11/25 10:28:12;;;;;;;5.03;2.87;;;12.00;99.40;;;;;;940618;150;27282;-78
2022/11/25 10:30:41;;;;;;;4.23;3.10;;;12.00;99.60;;;;;;939431;148;27463;-78
2022/11/25 10:33:36;;;;;;;3.17;2.33;;;12.10;99.70;;;;;;939198;149;27726;-78
2022/11/25 10:36:24;;;;;;;6.13;2.53;;;12.20;99.70;;;;;;898724;157;27531;-79
2022/11/25 10:39:02;;;;;;;4.17;2.53;;;12.30;99.50;;;;;;940727;150;27336;-79
2022/11/25 10:41:32;;;;;;;3.50;2.50;;;12.40;99.80;;;;;;939111;150;27413;-79
2022/11/25 10:43:58;;;;;;;3.03;2.23;;;12.40;99.90;;;;;;942784;150;27916;-79
2022/11/25 10:46:40;;;;;;;2.30;2.10;;;12.60;99.80;;;;;;939529;150;27699;-79
2022/11/25 10:49:12;;;;;;;4.10;2.15;;;12.70;99.70;;;;;;940902;150;27989;-78
2022/11/25 10:51:48;;;;;;;4.40;2.70;;;12.80;99.80;;;;;;942236;150;27394;-78
2022/11/25 10:54:18;;;;;;;3.03;2.17;;;13.00;99.80;;;;;;940507;150;27335;-78
2022/11/25 10:56:53;;;;;;;2.75;1.87;;;13.10;99.80;;;;;;940058;150;27408;-78
2022/11/25 10:59:22;;;;;;;3.83;2.37;;;13.20;99.30;;;;;;940434;150;27519;-78
2022/11/25 11:01:49;;;;;;;3.85;2.50;;;13.40;98.70;;;;;;943232;150;27270;-78
2022/11/25 11:04:17;;;;;;;2.58;2.27;;;13.50;98.50;;;;;;941248;150;27304;-78
2022/11/25 11:06:42;;;;;;;2.72;2.52;;;13.60;98.20;;;;;;940580;150;27806;-78
2022/11/25 11:09:41;;;;;;;3.77;2.25;;;13.70;97.80;;;;;;941409;150;27437;-78
2022/11/25 11:12:26;;;;;;;3.87;2.62;;;13.80;97.30;;;;;;940134;150;27292;-78
2022/11/25 11:14:53;;;;;;;4.95;2.58;;;13.90;97.00;;;;;;942446;150;27344;-78
2022/11/25 11:17:28;;;;;;;4.15;2.55;;;13.90;96.60;;;;;;938856;150;27272;-78
2022/11/25 11:20:07;;;;;;;3.52;2.37;;;14.00;96.10;;;;;;941610;150;27419;-78
2022/11/25 11:22:33;;;;;;;3.98;2.20;;;14.00;95.70;;;;;;939071;150;27427;-79
2022/11/25 11:25:09;;;;;;;3.65;2.72;;;13.90;95.50;;;;;;941023;150;27370;-79
2022/11/25 11:27:35;;;;;;;3.47;2.65;;;14.00;95.30;;;;;;941318;150;27299;-79
2022/11/25 11:30:05;;;;;;;4.37;2.27;;;14.00;95.30;;;;;;939804;148;27417;-78
2022/11/25 11:32:31;;;;;;;5.83;2.60;;;13.90;95.30;;;;;;938078;150;27347;-78
2022/11/25 11:35:07;;;;;;;4.95;2.65;;;13.90;95.30;;;;;;940027;150;27845;-78
2022/11/25 11:37:37;;;;;;;5.00;2.30;;;13.90;95.50;;;;;;940332;148;27440;-78
2022/11/25 11:40:21;;;;;;;3.60;2.52;;;14.00;95.70;;;;;;939823;150;27339;-78
2022/11/25 11:42:50;;;;;;;4.35;2.67;;;14.00;96.00;;;;;;942588;150;27354;-79
2022/11/25 11:45:42;;;;;;;5.08;2.55;;;14.00;96.20;;;;;;941747;150;27336;-79
2022/11/25 11:48:20;;;;;;;3.75;2.27;;;14.10;96.30;;;;;;940550;150;27311;-79
2022/11/25 11:50:47;;;;;;;3.67;2.47;;;14.20;96.30;;;;;;941770;149;27354;-79
2022/11/25 11:53:16;;;;;;;4.85;2.67;;;14.20;96.30;;;;;;940857;150;27435;-79
2022/11/25 11:55:46;;;;;;;3.62;2.62;;;14.30;96.60;;;;;;941466;150;27346;-79
2022/11/25 11:58:36;;;;;;;3.92;2.35;;;14.40;96.60;;;;;;939962;150;27330;-79
2022/11/25 12:01:15;;;;;;;3.10;2.37;;;14.40;96.30;;;;;;941586;150;27374;-79
2022/11/25 12:03:41;;;;;;;4.40;3.10;;;14.50;96.10;;;;;;938726;150;27357;-79
2022/11/25 12:06:08;;;;;;;3.80;2.60;;;14.60;96.20;;;;;;940563;150;27798;-79
2022/11/25 12:08:37;;;;;;;4.53;2.55;;;14.70;96.20;;;;;;939868;150;27389;-79
2022/11/25 12:11:10;;;;;;;3.90;2.70;;;14.80;96.10;;;;;;934874;150;27319;-79
2022/11/25 12:13:43;;;;;;;4.50;2.90;;;14.90;96.00;;;;;;939915;150;27323;-79
2022/11/25 12:16:14;;;;;;;4.37;2.65;;;15.00;96.00;;;;;;942591;150;27345;-79
2022/11/25 12:18:44;;;;;;;3.45;2.58;;;15.10;96.00;;;;;;925887;150;27313;-79
2022/11/25 12:21:11;;;;;;;5.92;2.70;;;15.30;95.50;;;;;;940203;150;27304;-79
2022/11/25 12:23:46;;;;;;;4.80;2.87;;;15.30;94.60;;;;;;937473;150;27270;-79
2022/11/25 12:26:13;;;;;;;4.60;2.52;;;15.40;93.90;;;;;;941169;150;27360;-79
2022/11/25 12:28:42;;;;;;;5.90;2.35;;;15.50;93.60;;;;;;941214;150;27382;-79
2022/11/25 12:31:36;;;;;;;6.30;3.12;;;15.50;92.90;;;;;;940644;150;27343;-79
2022/11/25 12:34:09;;;;;;;2.55;2.35;;;15.50;92.50;;;;;;939834;150;27846;-79
2022/11/25 12:36:35;;;;;;;4.33;2.55;;;15.50;92.40;;;;;;939694;150;27362;-79
2022/11/25 12:39:11;;;;;;;3.45;2.22;;;15.50;91.90;;;;;;939009;150;27295;-79
2022/11/25 12:41:47;;;;;;;3.55;2.40;;;15.50;91.30;;;;;;940040;150;27363;-79
2022/11/25 12:44:50;;;;;;;7.72;3.50;;;15.40;91.00;;;;;;942190;150;27310;-79
2022/11/25 12:47:17;;;;;;;4.85;2.60;;;15.40;91.00;;;;;;941305;150;27367;-79
2022/11/25 12:49:46;;;;;;;4.65;2.92;;;15.30;91.20;;;;;;940296;150;27387;-79
2022/11/25 12:52:18;;;;;;;3.75;2.75;;;15.30;91.10;;;;;;941219;150;27412;-79
2022/11/25 12:54:57;;;;;;;3.77;2.67;;;15.20;91.30;;;;;;942863;149;27415;-80
2022/11/25 12:58:00;;;;;;;4.83;2.98;;;15.20;91.30;;;;;;948652;149;27354;-79
2022/11/25 13:01:05;;;;;;;4.00;2.95;;;15.20;91.30;;;;;;944608;149;27425;-80
2022/11/25 13:03:49;;;;;;;4.70;2.52;;;15.20;91.40;;;;;;946784;148;27342;-78
2022/11/25 13:06:37;;;;;;;5.37;2.58;;;15.10;91.40;;;;;;948661;149;27334;-78
2022/11/25 13:09:00;;;;;;;2.95;2.25;;;15.10;91.20;;;;;;946151;149;27417;-79
2022/11/25 13:11:51;;;;;;;3.83;2.70;;;15.10;91.40;;;;;;946622;149;27429;-80
2022/11/25 13:14:26;;;;;;;4.05;2.25;;;15.00;91.20;;;;;;948664;149;27397;-80
2022/11/25 13:16:54;;;;;;;4.40;2.30;;;15.00;91.30;;;;;;945491;149;27310;-79